Black Star — 9HA2911 — position and weather

sailwx.info

Track history (hours):
 
Tides and Currents Weather Stations Pressure Air Temp Water Temp Dewpoint Dewpoint Depression Visibility Wind Speed Wind Dir Waves Ship Positions

Black Star

Last reported at 2015-Apr-21 04:33 UTC. Time now 2015-Apr-21 05:07 UTC.
Position N 50°35' E 000°25'.

Length 128 m; draft 6.9 m.

Type: Ship (hazmat cat B). MMSI: 256714000.

Date/timePositionNaut miles runAvg speedWind from/ knotsBaromVisibWave heightAir tempDewpointWater temp
2015-Apr-21 04:33N 50°35' E 000°25'1312.7
2015-Apr-21 03:32N 50°41' E 000°43'1211.8
2015-Apr-21 02:33N 50°48' E 000°57'1110.4
2015-Apr-21 01:27N 50°56' E 001°11'10 9.4
2015-Apr-21 00:23N 51°02' E 001°23'910.8
2015-Apr-20 23:34N 51°08' E 001°34'1312.7
2015-Apr-20 22:33N 51°17' E 001°48'1211.9
2015-Apr-20 21:33N 51°24' E 002°04'1211.9
2015-Apr-20 20:32N 51°22' E 002°23'1313.4
2015-Apr-20 19:33N 51°22' E 002°44'1313.1
2015-Apr-20 18:33N 51°24' E 003°05'1514.8
2015-Apr-20 17:33N 51°25' E 003°28'1413.5
2015-Apr-20 16:33N 51°21' E 003°49'9 8.6
2015-Apr-20 15:32N 51°24' E 004°02'7 7.5
2015-Apr-20 14:33N 51°22' E 004°14'6 6.2
2015-Apr-20 13:33N 51°16' E 004°17'0 0.0
2015-Apr-20 12:34N 51°16' E 004°17'1 0.9
2015-Apr-20 11:33N 51°16' E 004°15'0 0.0
2015-Apr-20 00:16N 51°16' E 004°15'0 0.0
2015-Apr-19 22:22N 51°16' E 004°15'0 0.0
2015-Apr-19 21:25N 51°16' E 004°15'0 0.0
2015-Apr-19 20:25N 51°16' E 004°15'0 0.0
2015-Apr-19 19:25N 51°16' E 004°15'0 0.0
2015-Apr-19 18:13N 51°16' E 004°15'0 0.0
2015-Apr-19 17:31N 51°16' E 004°15'0 0.0
2015-Apr-19 16:25N 51°16' E 004°15'0 0.0
2015-Apr-19 15:28N 51°16' E 004°15'0 0.0
2015-Apr-19 14:16N 51°16' E 004°15'0 0.0
2015-Apr-19 13:22N 51°16' E 004°15'0 0.0
2015-Apr-19 12:25N 51°16' E 004°15'0 0.0
2015-Apr-19 11:28N 51°16' E 004°15'0 0.0
2015-Apr-19 10:28N 51°16' E 004°15'0 0.0
2015-Apr-19 09:25N 51°16' E 004°15'0 0.0
2015-Apr-19 07:28N 51°16' E 004°15'0 0.0
2015-Apr-19 06:31N 51°16' E 004°15'0 0.0
2015-Apr-19 05:31N 51°16' E 004°15'0 0.0
2015-Apr-19 04:22N 51°16' E 004°15'0 0.0
2015-Apr-19 03:13N 51°16' E 004°15'0 0.0
2015-Apr-19 01:19N 51°16' E 004°15'0 0.0
2015-Apr-19 00:04N 51°16' E 004°15'0 0.0
2015-Apr-18 23:19N 51°16' E 004°15'0 0.5
2015-Apr-18 22:33N 51°16' E 004°16'1 0.6
2015-Apr-18 21:34N 51°16' E 004°17'5 5.4
2015-Apr-18 20:34N 51°21' E 004°15'9 8.5
2015-Apr-18 19:30N 51°25' E 004°02'8 8.6
2015-Apr-18 18:33N 51°21' E 003°51'9 9.4
2015-Apr-18 17:33N 51°26' E 003°39'8 7.9
2015-Apr-18 16:33N 51°25' E 003°26'10 9.6
2015-Apr-18 15:33N 51°24' E 003°11'1212.2
2015-Apr-18 14:33N 51°22' E 002°51'9 9.4
2015-Apr-18 13:33N 51°22' E 002°36'6 6.4
2015-Apr-18 12:33N 51°21' E 002°26'7 7.0
2015-Apr-18 11:33N 51°19' E 002°16'7 6.6
2015-Apr-18 10:33N 51°20' E 002°06'8 8.1
2015-Apr-18 09:33N 51°26' E 001°56'9 8.5
2015-Apr-18 08:33N 51°32' E 002°04'9 9.3
2015-Apr-18 07:33N 51°39' E 002°14'49 4.5
2015-Apr-17 20:31N 52°03' E 003°24'1111.2
2015-Apr-17 19:29N 52°02' E 003°42'1010.5
2015-Apr-17 18:33N 52°01' E 003°58'1212.5
2015-Apr-17 17:33N 51°55' E 004°15'3 1.9
2015-Apr-17 16:10N 51°53' E 004°19'0 0.0
2015-Apr-17 15:31N 51°53' E 004°19'0 0.0
2015-Apr-17 14:22N 51°53' E 004°19'0 0.0
2015-Apr-17 13:31N 51°53' E 004°19'0 0.0
2015-Apr-17 12:28N 51°53' E 004°19'0 0.0
2015-Apr-17 11:31N 51°53' E 004°19'0 0.0
2015-Apr-17 10:31N 51°53' E 004°19'0 0.0
2015-Apr-17 09:31N 51°53' E 004°19'0 0.0
2015-Apr-17 08:25N 51°53' E 004°19'0 0.0
2015-Apr-17 07:28N 51°53' E 004°19'0 0.0
2015-Apr-17 06:31N 51°53' E 004°19'0 0.0
2015-Apr-17 05:31N 51°53' E 004°19'0 0.0
2015-Apr-17 04:31N 51°53' E 004°19'0 0.0
2015-Apr-17 03:22N 51°53' E 004°19'0 0.0
2015-Apr-17 02:29N 51°53' E 004°19'0 0.0
2015-Apr-17 01:31N 51°53' E 004°19'0 0.0
2015-Apr-17 00:28N 51°53' E 004°19'0 0.0
2015-Apr-16 23:31N 51°53' E 004°19'0 0.0
2015-Apr-16 22:31N 51°53' E 004°19'0 0.0
2015-Apr-16 21:22N 51°53' E 004°19'0 0.0
2015-Apr-16 20:25N 51°53' E 004°19'0 0.0
2015-Apr-16 19:31N 51°53' E 004°19'0 0.0
2015-Apr-16 18:28N 51°53' E 004°19'0 0.0
2015-Apr-16 17:28N 51°53' E 004°19'0 0.0
2015-Apr-16 16:25N 51°53' E 004°19'0 0.0
2015-Apr-16 15:31N 51°53' E 004°19'0 0.0
2015-Apr-16 14:31N 51°53' E 004°19'0 0.0
2015-Apr-16 13:31N 51°53' E 004°19'0 0.0
2015-Apr-16 12:31N 51°53' E 004°19'0 0.0
2015-Apr-16 11:31N 51°53' E 004°19'0 0.0
2015-Apr-16 10:19N 51°53' E 004°19'0 0.0
2015-Apr-16 09:19N 51°53' E 004°19'0 0.0
2015-Apr-16 08:28N 51°53' E 004°19'0 0.0
2015-Apr-16 07:22N 51°53' E 004°19'0 0.0
2015-Apr-16 06:31N 51°53' E 004°19'0 0.0
2015-Apr-16 05:31N 51°53' E 004°19'0 0.0
2015-Apr-16 04:31N 51°53' E 004°19'7 6.6
2015-Apr-16 03:31N 51°46' E 004°19'7 6.5
2015-Apr-16 02:31N 51°53' E 004°19'0 0.0
2015-Apr-16 01:31N 51°53' E 004°19'0 0.0
2015-Apr-16 00:31N 51°53' E 004°19'0 0.0
2015-Apr-15 23:31N 51°53' E 004°19'0 0.0
2015-Apr-15 22:28N 51°53' E 004°19'0 0.0
2015-Apr-15 21:13N 51°53' E 004°19'0 0.0
2015-Apr-15 20:13N 51°53' E 004°19'0 0.0
2015-Apr-15 19:31N 51°53' E 004°19'0 0.2
2015-Apr-15 18:33N 51°53' E 004°18'7 7.2
2015-Apr-15 17:33N 51°57' E 004°09'1010.2
2015-Apr-15 16:33N 51°60' E 003°53'9 8.8
2015-Apr-15 15:30N 51°58' E 003°38'10 7.7
2015-Apr-15 14:12N 51°56' E 003°23'710.3
2015-Apr-15 13:31N 51°54' E 003°12'11 9.4
2015-Apr-15 12:23N 51°49' E 002°56'8 9.9
2015-Apr-15 11:33N 51°48' E 002°43'9 9.5
2015-Apr-15 10:33N 51°41' E 002°32'1010.1
2015-Apr-15 09:33N 51°33' E 002°22'10 9.9
2015-Apr-15 08:33N 51°25' E 002°13'7 7.0
2015-Apr-15 07:32N 51°22' E 002°24'1010.1
2015-Apr-15 06:33N 51°22' E 002°39'1211.6
2015-Apr-15 05:33N 51°23' E 002°58'1312.6
2015-Apr-15 04:33N 51°25' E 003°18'1212.4
2015-Apr-15 03:33N 51°26' E 003°38'1211.7
2015-Apr-15 02:33N 51°22' E 003°55'9 8.9
2015-Apr-15 01:33N 51°23' E 004°09'5 5.4
2015-Apr-15 00:33N 51°21' E 004°17'4 4.1
2015-Apr-14 23:33N 51°17' E 004°20'1 0.9
2015-Apr-14 22:33N 51°16' E 004°21'0 0.0
2015-Apr-14 21:23N 51°16' E 004°21'0 0.0
2015-Apr-14 20:32N 51°16' E 004°21'0 0.0
2015-Apr-14 19:29N 51°16' E 004°21'0 0.0
2015-Apr-14 18:32N 51°16' E 004°21'0 0.0
2015-Apr-14 17:29N 51°16' E 004°21'0 0.0
2015-Apr-14 15:32N 51°16' E 004°21'0 0.0
2015-Apr-14 14:32N 51°16' E 004°21'0 0.0
2015-Apr-14 13:29N 51°16' E 004°21'0 0.0
2015-Apr-14 12:32N 51°16' E 004°21'0 0.0
2015-Apr-14 11:26N 51°16' E 004°21'0 0.0
2015-Apr-14 10:32N 51°16' E 004°21'0 0.0
2015-Apr-14 09:14N 51°16' E 004°21'0 0.0
2015-Apr-14 08:24N 51°16' E 004°21'0 0.4
2015-Apr-14 07:32N 51°17' E 004°21'5 4.8
2015-Apr-14 06:33N 51°21' E 004°17'0 0.0
2015-Apr-14 05:33N 51°21' E 004°17'1 1.3
2015-Apr-14 04:33N 51°21' E 004°15'5 5.3
2015-Apr-14 03:33N 51°22' E 004°07'6 6.2
2015-Apr-14 02:33N 51°24' E 003°57'9 9.0
2015-Apr-14 01:34N 51°23' E 003°43'8 8.0
2015-Apr-14 00:33N 51°25' E 003°31'1211.1
2015-Apr-13 23:31N 51°24' E 003°12'1212.9
2015-Apr-13 22:33N 51°23' E 002°52'1110.9
2015-Apr-13 21:33N 51°23' E 002°35'2 0.1
2015-Apr-12 16:28N 51°25' E 002°36'0 0.0
2015-Apr-12 15:20N 51°25' E 002°36'0 0.2
2015-Apr-12 14:29N 51°25' E 002°36'0 0.0
2015-Apr-12 13:31N 51°25' E 002°36'0 0.0
2015-Apr-12 12:05N 51°25' E 002°36'0 0.2
2015-Apr-12 11:28N 51°25' E 002°36'0 0.1
2015-Apr-12 10:22N 51°25' E 002°36'0 0.0
2015-Apr-12 09:16N 51°25' E 002°36'0 0.0
2015-Apr-12 08:22N 51°25' E 002°36'0 0.0
2015-Apr-12 07:28N 51°25' E 002°36'0 0.0
2015-Apr-12 06:22N 51°25' E 002°36'0 0.0
2015-Apr-12 05:04N 51°25' E 002°36'0 0.1
2015-Apr-12 04:29N 51°25' E 002°36'0 0.0
2015-Apr-12 03:28N 51°25' E 002°36'0 0.1
2015-Apr-12 01:29N 51°25' E 002°36'0 0.0
2015-Apr-11 23:28N 51°25' E 002°36'0 0.2
2015-Apr-11 22:22N 51°25' E 002°36'0 0.1
2015-Apr-11 21:28N 51°25' E 002°36'0 0.0
2015-Apr-11 20:10N 51°25' E 002°36'0 0.0
2015-Apr-11 19:28N 51°25' E 002°36'0 0.0
2015-Apr-11 18:28N 51°25' E 002°36'0 0.0
2015-Apr-11 17:16N 51°25' E 002°36'0 0.0
2015-Apr-11 16:28N 51°25' E 002°36'0 0.0
2015-Apr-11 15:29N 51°25' E 002°36'0 0.1
2015-Apr-11 14:29N 51°25' E 002°36'0 0.1
2015-Apr-11 13:31N 51°25' E 002°36'0 0.2
2015-Apr-11 12:33N 51°25' E 002°36'0 0.1
2015-Apr-11 11:22N 51°25' E 002°36'0 0.0
2015-Apr-11 10:28N 51°25' E 002°36'0 0.0
2015-Apr-11 09:28N 51°25' E 002°36'0 0.0
2015-Apr-11 08:16N 51°25' E 002°36'0 0.0
2015-Apr-11 07:28N 51°25' E 002°36'0 0.0
2015-Apr-11 06:24N 51°25' E 002°36'0 0.0
2015-Apr-11 05:28N 51°25' E 002°36'  
Track history (hours):
 
Tides and Currents Weather Stations Pressure Air Temp Water Temp Dewpoint Dewpoint Depression Visibility Wind Speed Wind Dir Waves Ship Positions

Black Star

Last reported at 2015-Apr-21 04:33 UTC. Time now 2015-Apr-21 05:07 UTC.
Position N 50°35' E 000°25'.

Length 128 m; draft 6.9 m.

Type: Ship (hazmat cat B). MMSI: 256714000.

Date/timePositionNaut miles runAvg speedWind from/ knotsBaromVisibWave heightAir tempDewpointWater temp
2015-Apr-21 04:33N 50°35' E 000°25'1312.7
2015-Apr-21 03:32N 50°41' E 000°43'1211.8
2015-Apr-21 02:33N 50°48' E 000°57'1110.4
2015-Apr-21 01:27N 50°56' E 001°11'10 9.4
2015-Apr-21 00:23N 51°02' E 001°23'910.8
2015-Apr-20 23:34N 51°08' E 001°34'1312.7
2015-Apr-20 22:33N 51°17' E 001°48'1211.9
2015-Apr-20 21:33N 51°24' E 002°04'1211.9
2015-Apr-20 20:32N 51°22' E 002°23'1313.4
2015-Apr-20 19:33N 51°22' E 002°44'1313.1
2015-Apr-20 18:33N 51°24' E 003°05'1514.8
2015-Apr-20 17:33N 51°25' E 003°28'1413.5
2015-Apr-20 16:33N 51°21' E 003°49'9 8.6
2015-Apr-20 15:32N 51°24' E 004°02'7 7.5
2015-Apr-20 14:33N 51°22' E 004°14'6 6.2
2015-Apr-20 13:33N 51°16' E 004°17'0 0.0
2015-Apr-20 12:34N 51°16' E 004°17'1 0.9
2015-Apr-20 11:33N 51°16' E 004°15'0 0.0
2015-Apr-20 00:16N 51°16' E 004°15'0 0.0
2015-Apr-19 22:22N 51°16' E 004°15'0 0.0
2015-Apr-19 21:25N 51°16' E 004°15'0 0.0
2015-Apr-19 20:25N 51°16' E 004°15'0 0.0
2015-Apr-19 19:25N 51°16' E 004°15'0 0.0
2015-Apr-19 18:13N 51°16' E 004°15'0 0.0
2015-Apr-19 17:31N 51°16' E 004°15'0 0.0
2015-Apr-19 16:25N 51°16' E 004°15'0 0.0
2015-Apr-19 15:28N 51°16' E 004°15'0 0.0
2015-Apr-19 14:16N 51°16' E 004°15'0 0.0
2015-Apr-19 13:22N 51°16' E 004°15'0 0.0
2015-Apr-19 12:25N 51°16' E 004°15'0 0.0
2015-Apr-19 11:28N 51°16' E 004°15'0 0.0
2015-Apr-19 10:28N 51°16' E 004°15'0 0.0
2015-Apr-19 09:25N 51°16' E 004°15'0 0.0
2015-Apr-19 07:28N 51°16' E 004°15'0 0.0
2015-Apr-19 06:31N 51°16' E 004°15'0 0.0
2015-Apr-19 05:31N 51°16' E 004°15'0 0.0
2015-Apr-19 04:22N 51°16' E 004°15'0 0.0
2015-Apr-19 03:13N 51°16' E 004°15'0 0.0
2015-Apr-19 01:19N 51°16' E 004°15'0 0.0
2015-Apr-19 00:04N 51°16' E 004°15'0 0.0
2015-Apr-18 23:19N 51°16' E 004°15'0 0.5
2015-Apr-18 22:33N 51°16' E 004°16'1 0.6
2015-Apr-18 21:34N 51°16' E 004°17'5 5.4
2015-Apr-18 20:34N 51°21' E 004°15'9 8.5
2015-Apr-18 19:30N 51°25' E 004°02'8 8.6
2015-Apr-18 18:33N 51°21' E 003°51'9 9.4
2015-Apr-18 17:33N 51°26' E 003°39'8 7.9
2015-Apr-18 16:33N 51°25' E 003°26'10 9.6
2015-Apr-18 15:33N 51°24' E 003°11'1212.2
2015-Apr-18 14:33N 51°22' E 002°51'9 9.4
2015-Apr-18 13:33N 51°22' E 002°36'6 6.4
2015-Apr-18 12:33N 51°21' E 002°26'7 7.0
2015-Apr-18 11:33N 51°19' E 002°16'7 6.6
2015-Apr-18 10:33N 51°20' E 002°06'8 8.1
2015-Apr-18 09:33N 51°26' E 001°56'9 8.5
2015-Apr-18 08:33N 51°32' E 002°04'9 9.3
2015-Apr-18 07:33N 51°39' E 002°14'49 4.5
2015-Apr-17 20:31N 52°03' E 003°24'1111.2
2015-Apr-17 19:29N 52°02' E 003°42'1010.5
2015-Apr-17 18:33N 52°01' E 003°58'1212.5
2015-Apr-17 17:33N 51°55' E 004°15'3 1.9
2015-Apr-17 16:10N 51°53' E 004°19'0 0.0
2015-Apr-17 15:31N 51°53' E 004°19'0 0.0
2015-Apr-17 14:22N 51°53' E 004°19'0 0.0
2015-Apr-17 13:31N 51°53' E 004°19'0 0.0
2015-Apr-17 12:28N 51°53' E 004°19'0 0.0
2015-Apr-17 11:31N 51°53' E 004°19'0 0.0
2015-Apr-17 10:31N 51°53' E 004°19'0 0.0
2015-Apr-17 09:31N 51°53' E 004°19'0 0.0
2015-Apr-17 08:25N 51°53' E 004°19'0 0.0
2015-Apr-17 07:28N 51°53' E 004°19'0 0.0
2015-Apr-17 06:31N 51°53' E 004°19'0 0.0
2015-Apr-17 05:31N 51°53' E 004°19'0 0.0
2015-Apr-17 04:31N 51°53' E 004°19'0 0.0
2015-Apr-17 03:22N 51°53' E 004°19'0 0.0
2015-Apr-17 02:29N 51°53' E 004°19'0 0.0
2015-Apr-17 01:31N 51°53' E 004°19'0 0.0
2015-Apr-17 00:28N 51°53' E 004°19'0 0.0
2015-Apr-16 23:31N 51°53' E 004°19'0 0.0
2015-Apr-16 22:31N 51°53' E 004°19'0 0.0
2015-Apr-16 21:22N 51°53' E 004°19'0 0.0
2015-Apr-16 20:25N 51°53' E 004°19'0 0.0
2015-Apr-16 19:31N 51°53' E 004°19'0 0.0
2015-Apr-16 18:28N 51°53' E 004°19'0 0.0
2015-Apr-16 17:28N 51°53' E 004°19'0 0.0
2015-Apr-16 16:25N 51°53' E 004°19'0 0.0
2015-Apr-16 15:31N 51°53' E 004°19'0 0.0
2015-Apr-16 14:31N 51°53' E 004°19'0 0.0
2015-Apr-16 13:31N 51°53' E 004°19'0 0.0
2015-Apr-16 12:31N 51°53' E 004°19'0 0.0
2015-Apr-16 11:31N 51°53' E 004°19'0 0.0
2015-Apr-16 10:19N 51°53' E 004°19'0 0.0
2015-Apr-16 09:19N 51°53' E 004°19'0 0.0
2015-Apr-16 08:28N 51°53' E 004°19'0 0.0
2015-Apr-16 07:22N 51°53' E 004°19'0 0.0
2015-Apr-16 06:31N 51°53' E 004°19'0 0.0
2015-Apr-16 05:31N 51°53' E 004°19'0 0.0
2015-Apr-16 04:31N 51°53' E 004°19'7 6.6
2015-Apr-16 03:31N 51°46' E 004°19'7 6.5
2015-Apr-16 02:31N 51°53' E 004°19'0 0.0
2015-Apr-16 01:31N 51°53' E 004°19'0 0.0
2015-Apr-16 00:31N 51°53' E 004°19'0 0.0
2015-Apr-15 23:31N 51°53' E 004°19'0 0.0
2015-Apr-15 22:28N 51°53' E 004°19'0 0.0
2015-Apr-15 21:13N 51°53' E 004°19'0 0.0
2015-Apr-15 20:13N 51°53' E 004°19'0 0.0
2015-Apr-15 19:31N 51°53' E 004°19'0 0.2
2015-Apr-15 18:33N 51°53' E 004°18'7 7.2
2015-Apr-15 17:33N 51°57' E 004°09'1010.2
2015-Apr-15 16:33N 51°60' E 003°53'9 8.8
2015-Apr-15 15:30N 51°58' E 003°38'10 7.7
2015-Apr-15 14:12N 51°56' E 003°23'710.3
2015-Apr-15 13:31N 51°54' E 003°12'11 9.4
2015-Apr-15 12:23N 51°49' E 002°56'8 9.9
2015-Apr-15 11:33N 51°48' E 002°43'9 9.5
2015-Apr-15 10:33N 51°41' E 002°32'1010.1
2015-Apr-15 09:33N 51°33' E 002°22'10 9.9
2015-Apr-15 08:33N 51°25' E 002°13'7 7.0
2015-Apr-15 07:32N 51°22' E 002°24'1010.1
2015-Apr-15 06:33N 51°22' E 002°39'1211.6
2015-Apr-15 05:33N 51°23' E 002°58'1312.6
2015-Apr-15 04:33N 51°25' E 003°18'1212.4
2015-Apr-15 03:33N 51°26' E 003°38'1211.7
2015-Apr-15 02:33N 51°22' E 003°55'9 8.9
2015-Apr-15 01:33N 51°23' E 004°09'5 5.4
2015-Apr-15 00:33N 51°21' E 004°17'4 4.1
2015-Apr-14 23:33N 51°17' E 004°20'1 0.9
2015-Apr-14 22:33N 51°16' E 004°21'0 0.0
2015-Apr-14 21:23N 51°16' E 004°21'0 0.0
2015-Apr-14 20:32N 51°16' E 004°21'0 0.0
2015-Apr-14 19:29N 51°16' E 004°21'0 0.0
2015-Apr-14 18:32N 51°16' E 004°21'0 0.0
2015-Apr-14 17:29N 51°16' E 004°21'0 0.0
2015-Apr-14 15:32N 51°16' E 004°21'0 0.0
2015-Apr-14 14:32N 51°16' E 004°21'0 0.0
2015-Apr-14 13:29N 51°16' E 004°21'0 0.0
2015-Apr-14 12:32N 51°16' E 004°21'0 0.0
2015-Apr-14 11:26N 51°16' E 004°21'0 0.0
2015-Apr-14 10:32N 51°16' E 004°21'0 0.0
2015-Apr-14 09:14N 51°16' E 004°21'0 0.0
2015-Apr-14 08:24N 51°16' E 004°21'0 0.4
2015-Apr-14 07:32N 51°17' E 004°21'5 4.8
2015-Apr-14 06:33N 51°21' E 004°17'0 0.0
2015-Apr-14 05:33N 51°21' E 004°17'1 1.3
2015-Apr-14 04:33N 51°21' E 004°15'5 5.3
2015-Apr-14 03:33N 51°22' E 004°07'6 6.2
2015-Apr-14 02:33N 51°24' E 003°57'9 9.0
2015-Apr-14 01:34N 51°23' E 003°43'8 8.0
2015-Apr-14 00:33N 51°25' E 003°31'1211.1
2015-Apr-13 23:31N 51°24' E 003°12'1212.9
2015-Apr-13 22:33N 51°23' E 002°52'1110.9
2015-Apr-13 21:33N 51°23' E 002°35'2 0.1
2015-Apr-12 16:28N 51°25' E 002°36'0 0.0
2015-Apr-12 15:20N 51°25' E 002°36'0 0.2
2015-Apr-12 14:29N 51°25' E 002°36'0 0.0
2015-Apr-12 13:31N 51°25' E 002°36'0 0.0
2015-Apr-12 12:05N 51°25' E 002°36'0 0.2
2015-Apr-12 11:28N 51°25' E 002°36'0 0.1
2015-Apr-12 10:22N 51°25' E 002°36'0 0.0
2015-Apr-12 09:16N 51°25' E 002°36'0 0.0
2015-Apr-12 08:22N 51°25' E 002°36'0 0.0
2015-Apr-12 07:28N 51°25' E 002°36'0 0.0
2015-Apr-12 06:22N 51°25' E 002°36'0 0.0
2015-Apr-12 05:04N 51°25' E 002°36'0 0.1
2015-Apr-12 04:29N 51°25' E 002°36'0 0.0
2015-Apr-12 03:28N 51°25' E 002°36'0 0.1
2015-Apr-12 01:29N 51°25' E 002°36'0 0.0
2015-Apr-11 23:28N 51°25' E 002°36'0 0.2
2015-Apr-11 22:22N 51°25' E 002°36'0 0.1
2015-Apr-11 21:28N 51°25' E 002°36'0 0.0
2015-Apr-11 20:10N 51°25' E 002°36'0 0.0
2015-Apr-11 19:28N 51°25' E 002°36'0 0.0
2015-Apr-11 18:28N 51°25' E 002°36'0 0.0
2015-Apr-11 17:16N 51°25' E 002°36'0 0.0
2015-Apr-11 16:28N 51°25' E 002°36'0 0.0
2015-Apr-11 15:29N 51°25' E 002°36'0 0.1
2015-Apr-11 14:29N 51°25' E 002°36'0 0.1
2015-Apr-11 13:31N 51°25' E 002°36'0 0.2
2015-Apr-11 12:33N 51°25' E 002°36'0 0.1
2015-Apr-11 11:22N 51°25' E 002°36'0 0.0
2015-Apr-11 10:28N 51°25' E 002°36'0 0.0
2015-Apr-11 09:28N 51°25' E 002°36'0 0.0
2015-Apr-11 08:16N 51°25' E 002°36'0 0.0
2015-Apr-11 07:28N 51°25' E 002°36'0 0.0
2015-Apr-11 06:24N 51°25' E 002°36'0 0.0
2015-Apr-11 05:28N 51°25' E 002°36'  

Dump ship's entire track history